sensor_id;sensor_type;location;lat;lon;timestamp;P1;durP1;ratioP1;P2;durP2;ratioP2
22320;SDS011;11328;53.928;18.522;2022-12-05T00:03:57;76.05;;;28.48;;
22320;SDS011;11328;53.928;18.522;2022-12-05T00:06:28;77.65;;;28.05;;
22320;SDS011;11328;53.928;18.522;2022-12-05T00:08:56;87.68;;;31.77;;
22320;SDS011;11328;53.928;18.522;2022-12-05T00:11:25;91.63;;;31.42;;
22320;SDS011;11328;53.928;18.522;2022-12-05T00:13:56;83.18;;;31.92;;
22320;SDS011;11328;53.928;18.522;2022-12-05T00:16:26;82.90;;;31.75;;
22320;SDS011;11328;53.928;18.522;2022-12-05T00:18:57;84.10;;;31.17;;
22320;SDS011;11328;53.928;18.522;2022-12-05T00:21:26;91.45;;;32.25;;
22320;SDS011;11328;53.928;18.522;2022-12-05T00:23:56;93.45;;;33.00;;
22320;SDS011;11328;53.928;18.522;2022-12-05T00:26:26;83.93;;;30.10;;
22320;SDS011;11328;53.928;18.522;2022-12-05T00:28:56;82.07;;;30.02;;
22320;SDS011;11328;53.928;18.522;2022-12-05T00:31:24;84.60;;;30.20;;
22320;SDS011;11328;53.928;18.522;2022-12-05T00:33:53;87.35;;;29.98;;
22320;SDS011;11328;53.928;18.522;2022-12-05T00:36:23;82.70;;;30.67;;
22320;SDS011;11328;53.928;18.522;2022-12-05T00:38:53;87.15;;;31.35;;
22320;SDS011;11328;53.928;18.522;2022-12-05T00:41:24;92.20;;;31.15;;
22320;SDS011;11328;53.928;18.522;2022-12-05T00:43:53;88.68;;;31.92;;
22320;SDS011;11328;53.928;18.522;2022-12-05T00:46:25;85.38;;;30.60;;
22320;SDS011;11328;53.928;18.522;2022-12-05T00:48:56;80.07;;;30.80;;
22320;SDS011;11328;53.928;18.522;2022-12-05T00:51:35;83.15;;;30.27;;
22320;SDS011;11328;53.928;18.522;2022-12-05T00:54:07;73.95;;;29.08;;
22320;SDS011;11328;53.928;18.522;2022-12-05T00:56:37;81.30;;;30.42;;
22320;SDS011;11328;53.928;18.522;2022-12-05T00:59:04;89.72;;;30.15;;
22320;SDS011;11328;53.928;18.522;2022-12-05T01:01:35;78.10;;;29.38;;
22320;SDS011;11328;53.928;18.522;2022-12-05T01:04:06;86.05;;;29.27;;
22320;SDS011;11328;53.928;18.522;2022-12-05T01:06:37;77.35;;;29.42;;
22320;SDS011;11328;53.928;18.522;2022-12-05T01:09:05;76.70;;;29.17;;
22320;SDS011;11328;53.928;18.522;2022-12-05T01:11:33;78.18;;;29.25;;
22320;SDS011;11328;53.928;18.522;2022-12-05T01:14:06;70.43;;;27.70;;
22320;SDS011;11328;53.928;18.522;2022-12-05T01:16:38;68.43;;;27.10;;
22320;SDS011;11328;53.928;18.522;2022-12-05T01:19:13;69.20;;;26.38;;
22320;SDS011;11328;53.928;18.522;2022-12-05T01:21:47;67.75;;;26.52;;
22320;SDS011;11328;53.928;18.522;2022-12-05T01:24:14;67.22;;;27.33;;
22320;SDS011;11328;53.928;18.522;2022-12-05T01:26:44;67.10;;;26.45;;
22320;SDS011;11328;53.928;18.522;2022-12-05T01:29:14;66.22;;;25.52;;
22320;SDS011;11328;53.928;18.522;2022-12-05T01:31:45;71.22;;;27.95;;
22320;SDS011;11328;53.928;18.522;2022-12-05T01:34:13;69.25;;;28.63;;
22320;SDS011;11328;53.928;18.522;2022-12-05T01:36:42;73.60;;;28.83;;
22320;SDS011;11328;53.928;18.522;2022-12-05T01:50:53;66.43;;;31.15;;
22320;SDS011;11328;53.928;18.522;2022-12-05T01:53:20;67.72;;;28.30;;
22320;SDS011;11328;53.928;18.522;2022-12-05T01:55:49;60.47;;;27.77;;
22320;SDS011;11328;53.928;18.522;2022-12-05T01:58:16;59.28;;;26.63;;
22320;SDS011;11328;53.928;18.522;2022-12-05T02:00:45;62.53;;;25.83;;
22320;SDS011;11328;53.928;18.522;2022-12-05T02:03:16;62.15;;;26.63;;
22320;SDS011;11328;53.928;18.522;2022-12-05T02:05:46;63.00;;;26.73;;
22320;SDS011;11328;53.928;18.522;2022-12-05T02:08:19;63.38;;;27.20;;
22320;SDS011;11328;53.928;18.522;2022-12-05T02:10:50;65.03;;;26.20;;
22320;SDS011;11328;53.928;18.522;2022-12-05T02:13:43;60.60;;;25.08;;
22320;SDS011;11328;53.928;18.522;2022-12-05T02:31:32;68.45;;;26.98;;
22320;SDS011;11328;53.928;18.522;2022-12-05T02:34:25;68.32;;;27.38;;
22320;SDS011;11328;53.928;18.522;2022-12-05T02:37:38;75.85;;;28.08;;
22320;SDS011;11328;53.928;18.522;2022-12-05T02:40:38;65.15;;;26.52;;
22320;SDS011;11328;53.928;18.522;2022-12-05T02:43:20;63.25;;;25.92;;
22320;SDS011;11328;53.928;18.522;2022-12-05T02:45:56;64.57;;;26.83;;
22320;SDS011;11328;53.928;18.522;2022-12-05T02:48:31;71.72;;;27.75;;
22320;SDS011;11328;53.928;18.522;2022-12-05T02:51:01;72.07;;;26.63;;
22320;SDS011;11328;53.928;18.522;2022-12-05T02:53:32;69.05;;;27.10;;
22320;SDS011;11328;53.928;18.522;2022-12-05T02:56:03;64.90;;;26.90;;
22320;SDS011;11328;53.928;18.522;2022-12-05T02:58:33;64.80;;;26.52;;
22320;SDS011;11328;53.928;18.522;2022-12-05T03:01:09;64.20;;;25.90;;
22320;SDS011;11328;53.928;18.522;2022-12-05T03:03:37;62.35;;;26.65;;
22320;SDS011;11328;53.928;18.522;2022-12-05T03:11:20;59.45;;;24.67;;
22320;SDS011;11328;53.928;18.522;2022-12-05T03:13:48;64.95;;;25.85;;
22320;SDS011;11328;53.928;18.522;2022-12-05T03:16:25;63.22;;;26.45;;
22320;SDS011;11328;53.928;18.522;2022-12-05T03:19:02;60.50;;;25.63;;
22320;SDS011;11328;53.928;18.522;2022-12-05T03:21:42;58.70;;;25.60;;
22320;SDS011;11328;53.928;18.522;2022-12-05T03:24:26;66.82;;;26.75;;
22320;SDS011;11328;53.928;18.522;2022-12-05T03:27:15;57.75;;;25.75;;
22320;SDS011;11328;53.928;18.522;2022-12-05T03:38:26;67.38;;;26.00;;
22320;SDS011;11328;53.928;18.522;2022-12-05T03:46:23;64.78;;;24.80;;
22320;SDS011;11328;53.928;18.522;2022-12-05T03:48:58;56.35;;;24.48;;
22320;SDS011;11328;53.928;18.522;2022-12-05T03:51:52;60.75;;;23.50;;
22320;SDS011;11328;53.928;18.522;2022-12-05T03:57:21;60.67;;;22.90;;
22320;SDS011;11328;53.928;18.522;2022-12-05T04:00:16;62.15;;;24.60;;
22320;SDS011;11328;53.928;18.522;2022-12-05T04:05:52;63.47;;;23.45;;
22320;SDS011;11328;53.928;18.522;2022-12-05T04:08:59;54.60;;;23.00;;
22320;SDS011;11328;53.928;18.522;2022-12-05T04:11:27;57.72;;;23.88;;
22320;SDS011;11328;53.928;18.522;2022-12-05T04:14:01;60.33;;;24.52;;
22320;SDS011;11328;53.928;18.522;2022-12-05T04:22:20;60.38;;;23.83;;
22320;SDS011;11328;53.928;18.522;2022-12-05T04:24:50;58.97;;;24.17;;
22320;SDS011;11328;53.928;18.522;2022-12-05T04:30:57;56.83;;;22.88;;
22320;SDS011;11328;53.928;18.522;2022-12-05T04:36:23;61.65;;;24.60;;
22320;SDS011;11328;53.928;18.522;2022-12-05T04:38:59;62.08;;;24.52;;
22320;SDS011;11328;53.928;18.522;2022-12-05T04:41:59;64.60;;;25.40;;
22320;SDS011;11328;53.928;18.522;2022-12-05T04:44:36;60.50;;;24.27;;
22320;SDS011;11328;53.928;18.522;2022-12-05T04:47:18;62.78;;;24.58;;
22320;SDS011;11328;53.928;18.522;2022-12-05T04:49:51;60.35;;;25.40;;
22320;SDS011;11328;53.928;18.522;2022-12-05T04:52:21;57.92;;;25.63;;
22320;SDS011;11328;53.928;18.522;2022-12-05T04:54:53;57.92;;;22.75;;
22320;SDS011;11328;53.928;18.522;2022-12-05T04:57:43;58.33;;;23.13;;
22320;SDS011;11328;53.928;18.522;2022-12-05T05:00:20;54.30;;;23.30;;
22320;SDS011;11328;53.928;18.522;2022-12-05T05:02:52;60.58;;;24.30;;
22320;SDS011;11328;53.928;18.522;2022-12-05T05:05:34;56.25;;;23.15;;
22320;SDS011;11328;53.928;18.522;2022-12-05T05:08:03;57.45;;;23.88;;
22320;SDS011;11328;53.928;18.522;2022-12-05T05:10:43;56.47;;;23.38;;
22320;SDS011;11328;53.928;18.522;2022-12-05T05:13:27;58.65;;;23.58;;
22320;SDS011;11328;53.928;18.522;2022-12-05T05:15:54;56.83;;;23.35;;
22320;SDS011;11328;53.928;18.522;2022-12-05T05:18:21;65.20;;;25.17;;
22320;SDS011;11328;53.928;18.522;2022-12-05T05:20:49;67.82;;;26.50;;
22320;SDS011;11328;53.928;18.522;2022-12-05T05:23:16;58.40;;;24.63;;
22320;SDS011;11328;53.928;18.522;2022-12-05T05:25:43;64.35;;;25.75;;
22320;SDS011;11328;53.928;18.522;2022-12-05T05:28:10;59.30;;;25.23;;
22320;SDS011;11328;53.928;18.522;2022-12-05T05:30:37;64.95;;;25.60;;
22320;SDS011;11328;53.928;18.522;2022-12-05T05:33:04;63.38;;;25.70;;
22320;SDS011;11328;53.928;18.522;2022-12-05T05:35:31;61.00;;;25.10;;
22320;SDS011;11328;53.928;18.522;2022-12-05T05:38:02;57.50;;;25.00;;
22320;SDS011;11328;53.928;18.522;2022-12-05T05:40:29;69.20;;;25.88;;
22320;SDS011;11328;53.928;18.522;2022-12-05T05:42:56;63.08;;;26.70;;
22320;SDS011;11328;53.928;18.522;2022-12-05T05:45:23;65.05;;;26.50;;
22320;SDS011;11328;53.928;18.522;2022-12-05T05:47:50;70.03;;;27.25;;
22320;SDS011;11328;53.928;18.522;2022-12-05T05:50:17;63.88;;;26.48;;
22320;SDS011;11328;53.928;18.522;2022-12-05T05:52:47;69.53;;;26.05;;
22320;SDS011;11328;53.928;18.522;2022-12-05T05:55:14;77.55;;;34.70;;
22320;SDS011;11328;53.928;18.522;2022-12-05T05:57:41;65.93;;;26.13;;
22320;SDS011;11328;53.928;18.522;2022-12-05T06:11:49;69.55;;;29.42;;
22320;SDS011;11328;53.928;18.522;2022-12-05T06:14:16;57.20;;;25.42;;
22320;SDS011;11328;53.928;18.522;2022-12-05T06:16:43;59.42;;;25.33;;
22320;SDS011;11328;53.928;18.522;2022-12-05T06:19:10;58.75;;;23.52;;
22320;SDS011;11328;53.928;18.522;2022-12-05T06:21:37;57.55;;;23.33;;
22320;SDS011;11328;53.928;18.522;2022-12-05T06:24:04;56.58;;;23.80;;
22320;SDS011;11328;53.928;18.522;2022-12-05T06:26:32;64.10;;;23.63;;
22320;SDS011;11328;53.928;18.522;2022-12-05T06:28:59;64.25;;;24.95;;
22320;SDS011;11328;53.928;18.522;2022-12-05T06:31:26;63.40;;;25.20;;
22320;SDS011;11328;53.928;18.522;2022-12-05T06:34:00;71.28;;;26.17;;
22320;SDS011;11328;53.928;18.522;2022-12-05T06:36:29;57.80;;;24.92;;
22320;SDS011;11328;53.928;18.522;2022-12-05T06:38:56;64.60;;;25.48;;
22320;SDS011;11328;53.928;18.522;2022-12-05T06:41:25;91.18;;;39.67;;
22320;SDS011;11328;53.928;18.522;2022-12-05T06:43:56;66.90;;;26.67;;
22320;SDS011;11328;53.928;18.522;2022-12-05T06:46:28;61.53;;;22.65;;
22320;SDS011;11328;53.928;18.522;2022-12-05T06:48:56;56.83;;;22.55;;
22320;SDS011;11328;53.928;18.522;2022-12-05T06:51:24;56.28;;;22.13;;
22320;SDS011;11328;53.928;18.522;2022-12-05T06:53:51;52.80;;;21.55;;
22320;SDS011;11328;53.928;18.522;2022-12-05T06:56:18;60.95;;;23.83;;
22320;SDS011;11328;53.928;18.522;2022-12-05T06:58:46;57.25;;;24.25;;
22320;SDS011;11328;53.928;18.522;2022-12-05T07:01:19;63.38;;;24.60;;
22320;SDS011;11328;53.928;18.522;2022-12-05T07:06:41;59.10;;;21.58;;
22320;SDS011;11328;53.928;18.522;2022-12-05T07:09:17;53.05;;;20.88;;
22320;SDS011;11328;53.928;18.522;2022-12-05T07:11:49;56.60;;;21.05;;
22320;SDS011;11328;53.928;18.522;2022-12-05T07:14:17;58.90;;;21.80;;
22320;SDS011;11328;53.928;18.522;2022-12-05T07:17:04;55.58;;;23.02;;
22320;SDS011;11328;53.928;18.522;2022-12-05T07:19:31;62.55;;;23.90;;
22320;SDS011;11328;53.928;18.522;2022-12-05T07:21:58;60.20;;;23.75;;
22320;SDS011;11328;53.928;18.522;2022-12-05T07:24:26;58.42;;;22.48;;
22320;SDS011;11328;53.928;18.522;2022-12-05T07:26:53;69.95;;;24.60;;
22320;SDS011;11328;53.928;18.522;2022-12-05T07:29:20;63.17;;;24.15;;
22320;SDS011;11328;53.928;18.522;2022-12-05T07:31:47;63.22;;;23.90;;
22320;SDS011;11328;53.928;18.522;2022-12-05T07:34:14;62.58;;;23.90;;
22320;SDS011;11328;53.928;18.522;2022-12-05T07:36:41;64.35;;;24.65;;
22320;SDS011;11328;53.928;18.522;2022-12-05T07:39:08;62.13;;;23.08;;
22320;SDS011;11328;53.928;18.522;2022-12-05T07:41:35;63.67;;;23.70;;
22320;SDS011;11328;53.928;18.522;2022-12-05T07:44:02;56.75;;;23.13;;
22320;SDS011;11328;53.928;18.522;2022-12-05T07:46:29;61.40;;;23.73;;
22320;SDS011;11328;53.928;18.522;2022-12-05T07:48:56;64.22;;;24.50;;
22320;SDS011;11328;53.928;18.522;2022-12-05T07:51:23;67.57;;;24.60;;
22320;SDS011;11328;53.928;18.522;2022-12-05T07:53:50;70.25;;;26.52;;
22320;SDS011;11328;53.928;18.522;2022-12-05T07:56:17;70.35;;;26.83;;
22320;SDS011;11328;53.928;18.522;2022-12-05T07:58:45;67.40;;;25.00;;
22320;SDS011;11328;53.928;18.522;2022-12-05T08:03:52;60.13;;;24.55;;
22320;SDS011;11328;53.928;18.522;2022-12-05T08:06:25;68.30;;;25.45;;
22320;SDS011;11328;53.928;18.522;2022-12-05T08:08:55;70.65;;;27.70;;
22320;SDS011;11328;53.928;18.522;2022-12-05T08:11:29;70.32;;;26.15;;
22320;SDS011;11328;53.928;18.522;2022-12-05T08:14:02;73.45;;;26.98;;
22320;SDS011;11328;53.928;18.522;2022-12-05T08:16:31;80.03;;;28.08;;
22320;SDS011;11328;53.928;18.522;2022-12-05T08:19:05;69.05;;;27.30;;
22320;SDS011;11328;53.928;18.522;2022-12-05T08:21:38;72.60;;;27.00;;
22320;SDS011;11328;53.928;18.522;2022-12-05T08:24:05;78.07;;;28.15;;
22320;SDS011;11328;53.928;18.522;2022-12-05T08:26:33;69.30;;;26.85;;
22320;SDS011;11328;53.928;18.522;2022-12-05T08:29:03;72.03;;;26.67;;
22320;SDS011;11328;53.928;18.522;2022-12-05T08:31:35;71.88;;;26.98;;
22320;SDS011;11328;53.928;18.522;2022-12-05T08:34:12;70.90;;;26.02;;
22320;SDS011;11328;53.928;18.522;2022-12-05T08:36:41;68.20;;;26.10;;
22320;SDS011;11328;53.928;18.522;2022-12-05T08:39:10;68.25;;;25.27;;
22320;SDS011;11328;53.928;18.522;2022-12-05T08:41:41;75.15;;;27.10;;
22320;SDS011;11328;53.928;18.522;2022-12-05T08:44:10;69.30;;;25.50;;
22320;SDS011;11328;53.928;18.522;2022-12-05T08:46:42;69.32;;;25.23;;
22320;SDS011;11328;53.928;18.522;2022-12-05T08:49:12;73.35;;;25.88;;
22320;SDS011;11328;53.928;18.522;2022-12-05T08:51:40;74.60;;;25.65;;
22320;SDS011;11328;53.928;18.522;2022-12-05T08:54:08;70.00;;;26.20;;
22320;SDS011;11328;53.928;18.522;2022-12-05T08:56:36;79.15;;;27.25;;
22320;SDS011;11328;53.928;18.522;2022-12-05T08:59:04;74.00;;;26.60;;
22320;SDS011;11328;53.928;18.522;2022-12-05T09:01:32;72.82;;;27.52;;
22320;SDS011;11328;53.928;18.522;2022-12-05T09:04:04;78.95;;;26.65;;
22320;SDS011;11328;53.928;18.522;2022-12-05T09:06:32;63.15;;;25.48;;
22320;SDS011;11328;53.928;18.522;2022-12-05T09:09:04;67.50;;;25.17;;
22320;SDS011;11328;53.928;18.522;2022-12-05T09:11:38;62.80;;;24.02;;
22320;SDS011;11328;53.928;18.522;2022-12-05T09:14:12;67.05;;;24.30;;
22320;SDS011;11328;53.928;18.522;2022-12-05T09:16:40;71.70;;;24.42;;
22320;SDS011;11328;53.928;18.522;2022-12-05T09:19:20;69.13;;;26.38;;
22320;SDS011;11328;53.928;18.522;2022-12-05T09:21:48;63.90;;;23.40;;
22320;SDS011;11328;53.928;18.522;2022-12-05T09:24:15;66.55;;;24.40;;
22320;SDS011;11328;53.928;18.522;2022-12-05T09:26:42;64.55;;;23.67;;
22320;SDS011;11328;53.928;18.522;2022-12-05T09:29:11;60.78;;;23.20;;
22320;SDS011;11328;53.928;18.522;2022-12-05T09:31:42;60.22;;;23.48;;
22320;SDS011;11328;53.928;18.522;2022-12-05T09:34:12;54.45;;;22.45;;
22320;SDS011;11328;53.928;18.522;2022-12-05T09:36:41;63.75;;;23.23;;
22320;SDS011;11328;53.928;18.522;2022-12-05T09:39:09;61.60;;;23.10;;
22320;SDS011;11328;53.928;18.522;2022-12-05T09:50:58;60.67;;;25.08;;
22320;SDS011;11328;53.928;18.522;2022-12-05T09:53:32;62.95;;;23.73;;
22320;SDS011;11328;53.928;18.522;2022-12-05T09:58:56;65.90;;;27.02;;
22320;SDS011;11328;53.928;18.522;2022-12-05T10:01:30;74.18;;;27.17;;
22320;SDS011;11328;53.928;18.522;2022-12-05T10:04:19;70.72;;;25.88;;
22320;SDS011;11328;53.928;18.522;2022-12-05T10:12:58;73.60;;;26.98;;
22320;SDS011;11328;53.928;18.522;2022-12-05T10:15:44;71.30;;;25.95;;
22320;SDS011;11328;53.928;18.522;2022-12-05T10:24:04;72.47;;;28.60;;
22320;SDS011;11328;53.928;18.522;2022-12-05T10:26:45;87.32;;;32.40;;
22320;SDS011;11328;53.928;18.522;2022-12-05T10:29:22;78.63;;;31.88;;
22320;SDS011;11328;53.928;18.522;2022-12-05T10:32:12;70.25;;;28.02;;
22320;SDS011;11328;53.928;18.522;2022-12-05T10:34:47;70.00;;;28.15;;
22320;SDS011;11328;53.928;18.522;2022-12-05T10:37:21;69.72;;;28.67;;
22320;SDS011;11328;53.928;18.522;2022-12-05T10:39:49;71.30;;;28.35;;
22320;SDS011;11328;53.928;18.522;2022-12-05T10:42:33;66.95;;;27.40;;
22320;SDS011;11328;53.928;18.522;2022-12-05T10:45:02;72.30;;;27.48;;
22320;SDS011;11328;53.928;18.522;2022-12-05T10:47:49;71.20;;;28.60;;
22320;SDS011;11328;53.928;18.522;2022-12-05T10:50:27;65.70;;;27.88;;
22320;SDS011;11328;53.928;18.522;2022-12-05T10:53:01;80.13;;;29.92;;
22320;SDS011;11328;53.928;18.522;2022-12-05T10:55:41;76.93;;;29.52;;
22320;SDS011;11328;53.928;18.522;2022-12-05T10:58:32;70.15;;;27.02;;
22320;SDS011;11328;53.928;18.522;2022-12-05T11:01:08;74.63;;;27.80;;
22320;SDS011;11328;53.928;18.522;2022-12-05T11:03:40;75.35;;;28.27;;
22320;SDS011;11328;53.928;18.522;2022-12-05T11:06:22;76.50;;;29.70;;
22320;SDS011;11328;53.928;18.522;2022-12-05T11:08:54;81.63;;;30.38;;
22320;SDS011;11328;53.928;18.522;2022-12-05T11:11:40;77.20;;;29.80;;
22320;SDS011;11328;53.928;18.522;2022-12-05T11:14:20;76.88;;;29.38;;
22320;SDS011;11328;53.928;18.522;2022-12-05T11:16:58;74.28;;;30.98;;
22320;SDS011;11328;53.928;18.522;2022-12-05T11:19:28;68.50;;;27.13;;
22320;SDS011;11328;53.928;18.522;2022-12-05T11:21:57;67.97;;;26.45;;
22320;SDS011;11328;53.928;18.522;2022-12-05T11:24:38;68.75;;;26.20;;
22320;SDS011;11328;53.928;18.522;2022-12-05T11:29:42;65.22;;;25.92;;
22320;SDS011;11328;53.928;18.522;2022-12-05T11:32:20;74.00;;;27.83;;
22320;SDS011;11328;53.928;18.522;2022-12-05T11:35:00;68.97;;;28.67;;
22320;SDS011;11328;53.928;18.522;2022-12-05T11:43:37;70.93;;;27.67;;
22320;SDS011;11328;53.928;18.522;2022-12-05T11:49:20;65.50;;;27.00;;
22320;SDS011;11328;53.928;18.522;2022-12-05T11:52:34;68.40;;;26.42;;
22320;SDS011;11328;53.928;18.522;2022-12-05T11:58:40;77.38;;;27.65;;
22320;SDS011;11328;53.928;18.522;2022-12-05T12:12:54;70.43;;;27.77;;
22320;SDS011;11328;53.928;18.522;2022-12-05T12:15:47;61.92;;;27.13;;
22320;SDS011;11328;53.928;18.522;2022-12-05T12:22:01;76.63;;;30.23;;
22320;SDS011;11328;53.928;18.522;2022-12-05T12:33:28;69.88;;;28.17;;
22320;SDS011;11328;53.928;18.522;2022-12-05T12:44:43;67.47;;;28.67;;
22320;SDS011;11328;53.928;18.522;2022-12-05T12:47:43;69.57;;;28.45;;
22320;SDS011;11328;53.928;18.522;2022-12-05T12:50:34;73.82;;;28.90;;
22320;SDS011;11328;53.928;18.522;2022-12-05T13:02:16;76.22;;;30.30;;
22320;SDS011;11328;53.928;18.522;2022-12-05T13:07:50;79.13;;;30.98;;
22320;SDS011;11328;53.928;18.522;2022-12-05T13:10:36;79.80;;;30.80;;
22320;SDS011;11328;53.928;18.522;2022-12-05T13:13:36;68.15;;;28.17;;
22320;SDS011;11328;53.928;18.522;2022-12-05T13:16:07;78.20;;;28.60;;
22320;SDS011;11328;53.928;18.522;2022-12-05T13:18:41;74.30;;;29.48;;
22320;SDS011;11328;53.928;18.522;2022-12-05T13:21:08;74.30;;;28.42;;
22320;SDS011;11328;53.928;18.522;2022-12-05T13:23:40;83.68;;;31.42;;
22320;SDS011;11328;53.928;18.522;2022-12-05T13:26:14;81.00;;;31.95;;
22320;SDS011;11328;53.928;18.522;2022-12-05T13:28:49;79.53;;;32.70;;
22320;SDS011;11328;53.928;18.522;2022-12-05T13:34:35;73.50;;;29.60;;
22320;SDS011;11328;53.928;18.522;2022-12-05T13:37:08;79.10;;;29.50;;
22320;SDS011;11328;53.928;18.522;2022-12-05T13:40:02;76.03;;;28.80;;
22320;SDS011;11328;53.928;18.522;2022-12-05T13:54:24;86.32;;;34.97;;
22320;SDS011;11328;53.928;18.522;2022-12-05T13:56:55;78.97;;;32.25;;
22320;SDS011;11328;53.928;18.522;2022-12-05T14:02:45;69.38;;;27.88;;
22320;SDS011;11328;53.928;18.522;2022-12-05T14:07:51;71.13;;;29.80;;
22320;SDS011;11328;53.928;18.522;2022-12-05T14:13:47;74.68;;;28.90;;
22320;SDS011;11328;53.928;18.522;2022-12-05T14:15:49;72.88;;;28.52;;
22320;SDS011;11328;53.928;18.522;2022-12-05T14:24:05;73.47;;;30.67;;
22320;SDS011;11328;53.928;18.522;2022-12-05T14:27:19;55.53;;;23.20;;
22320;SDS011;11328;53.928;18.522;2022-12-05T14:30:24;78.35;;;32.53;;
22320;SDS011;11328;53.928;18.522;2022-12-05T14:33:14;69.88;;;31.20;;
22320;SDS011;11328;53.928;18.522;2022-12-05T14:35:47;73.57;;;31.90;;
22320;SDS011;11328;53.928;18.522;2022-12-05T14:38:27;70.10;;;30.17;;
22320;SDS011;11328;53.928;18.522;2022-12-05T14:41:21;70.20;;;30.00;;
22320;SDS011;11328;53.928;18.522;2022-12-05T14:43:54;65.82;;;29.20;;
22320;SDS011;11328;53.928;18.522;2022-12-05T14:46:24;71.18;;;30.27;;
22320;SDS011;11328;53.928;18.522;2022-12-05T14:49:32;69.95;;;30.10;;
22320;SDS011;11328;53.928;18.522;2022-12-05T14:52:19;75.22;;;28.85;;
22320;SDS011;11328;53.928;18.522;2022-12-05T14:54:51;68.43;;;29.27;;
22320;SDS011;11328;53.928;18.522;2022-12-05T14:57:26;71.95;;;30.85;;
22320;SDS011;11328;53.928;18.522;2022-12-05T14:59:56;72.05;;;30.55;;
22320;SDS011;11328;53.928;18.522;2022-12-05T15:02:36;71.75;;;30.08;;
22320;SDS011;11328;53.928;18.522;2022-12-05T15:05:19;70.10;;;30.60;;
22320;SDS011;11328;53.928;18.522;2022-12-05T15:07:58;70.90;;;31.27;;
22320;SDS011;11328;53.928;18.522;2022-12-05T15:10:30;75.65;;;32.13;;
22320;SDS011;11328;53.928;18.522;2022-12-05T15:13:08;72.65;;;31.90;;
22320;SDS011;11328;53.928;18.522;2022-12-05T15:18:45;78.65;;;32.83;;
22320;SDS011;11328;53.928;18.522;2022-12-05T15:21:23;76.80;;;32.92;;
22320;SDS011;11328;53.928;18.522;2022-12-05T15:24:13;82.70;;;34.28;;
22320;SDS011;11328;53.928;18.522;2022-12-05T15:40:08;76.35;;;32.38;;
22320;SDS011;11328;53.928;18.522;2022-12-05T15:42:40;82.18;;;34.58;;
22320;SDS011;11328;53.928;18.522;2022-12-05T15:47:39;71.13;;;31.98;;
22320;SDS011;11328;53.928;18.522;2022-12-05T15:50:15;78.40;;;32.83;;
22320;SDS011;11328;53.928;18.522;2022-12-05T15:58:54;70.15;;;30.58;;
22320;SDS011;11328;53.928;18.522;2022-12-05T16:01:23;83.45;;;31.95;;
22320;SDS011;11328;53.928;18.522;2022-12-05T16:06:55;81.68;;;32.60;;
22320;SDS011;11328;53.928;18.522;2022-12-05T16:09:30;81.47;;;32.38;;
22320;SDS011;11328;53.928;18.522;2022-12-05T16:12:00;78.00;;;32.17;;
22320;SDS011;11328;53.928;18.522;2022-12-05T16:14:33;77.72;;;32.20;;
22320;SDS011;11328;53.928;18.522;2022-12-05T16:17:24;79.50;;;31.93;;
22320;SDS011;11328;53.928;18.522;2022-12-05T16:20:40;84.00;;;33.40;;
22320;SDS011;11328;53.928;18.522;2022-12-05T16:22:43;73.50;;;31.23;;
22320;SDS011;11328;53.928;18.522;2022-12-05T16:25:16;81.18;;;32.95;;
22320;SDS011;11328;53.928;18.522;2022-12-05T16:27:55;89.97;;;35.83;;
22320;SDS011;11328;53.928;18.522;2022-12-05T16:30:28;87.63;;;34.35;;
22320;SDS011;11328;53.928;18.522;2022-12-05T16:33:01;91.45;;;35.33;;
22320;SDS011;11328;53.928;18.522;2022-12-05T16:38:09;87.53;;;33.75;;
22320;SDS011;11328;53.928;18.522;2022-12-05T16:40:54;87.53;;;33.53;;
22320;SDS011;11328;53.928;18.522;2022-12-05T16:48:40;91.13;;;33.85;;
22320;SDS011;11328;53.928;18.522;2022-12-05T16:51:18;90.57;;;33.55;;
22320;SDS011;11328;53.928;18.522;2022-12-05T16:53:51;94.65;;;33.88;;
22320;SDS011;11328;53.928;18.522;2022-12-05T16:56:21;94.25;;;34.97;;
22320;SDS011;11328;53.928;18.522;2022-12-05T16:58:54;90.03;;;31.65;;
22320;SDS011;11328;53.928;18.522;2022-12-05T17:01:24;94.40;;;32.90;;
22320;SDS011;11328;53.928;18.522;2022-12-05T17:03:53;92.00;;;33.15;;
22320;SDS011;11328;53.928;18.522;2022-12-05T17:06:22;98.28;;;34.83;;
22320;SDS011;11328;53.928;18.522;2022-12-05T17:08:51;106.03;;;35.67;;
22320;SDS011;11328;53.928;18.522;2022-12-05T17:13:52;101.13;;;34.63;;
22320;SDS011;11328;53.928;18.522;2022-12-05T17:16:21;102.40;;;34.15;;
22320;SDS011;11328;53.928;18.522;2022-12-05T17:18:50;104.38;;;35.35;;
22320;SDS011;11328;53.928;18.522;2022-12-05T17:21:24;98.75;;;35.17;;
22320;SDS011;11328;53.928;18.522;2022-12-05T17:23:56;127.13;;;34.13;;
22320;SDS011;11328;53.928;18.522;2022-12-05T17:26:23;110.47;;;35.22;;
22320;SDS011;11328;53.928;18.522;2022-12-05T17:28:51;107.78;;;34.90;;
22320;SDS011;11328;53.928;18.522;2022-12-05T17:31:19;118.18;;;35.40;;
22320;SDS011;11328;53.928;18.522;2022-12-05T17:33:49;124.03;;;37.42;;
22320;SDS011;11328;53.928;18.522;2022-12-05T17:36:19;104.30;;;35.38;;
22320;SDS011;11328;53.928;18.522;2022-12-05T17:38:46;114.68;;;35.50;;
22320;SDS011;11328;53.928;18.522;2022-12-05T17:41:17;109.05;;;36.38;;
22320;SDS011;11328;53.928;18.522;2022-12-05T17:43:49;114.97;;;36.63;;
22320;SDS011;11328;53.928;18.522;2022-12-05T17:46:17;110.20;;;36.05;;
22320;SDS011;11328;53.928;18.522;2022-12-05T17:48:51;116.95;;;38.35;;
22320;SDS011;11328;53.928;18.522;2022-12-05T17:51:26;124.85;;;39.03;;
22320;SDS011;11328;53.928;18.522;2022-12-05T18:05:25;158.43;;;52.15;;
22320;SDS011;11328;53.928;18.522;2022-12-05T18:07:52;129.48;;;42.53;;
22320;SDS011;11328;53.928;18.522;2022-12-05T18:10:20;128.38;;;42.08;;
22320;SDS011;11328;53.928;18.522;2022-12-05T18:12:49;141.55;;;45.65;;
22320;SDS011;11328;53.928;18.522;2022-12-05T18:15:16;132.63;;;40.00;;
22320;SDS011;11328;53.928;18.522;2022-12-05T18:17:43;124.07;;;40.45;;
22320;SDS011;11328;53.928;18.522;2022-12-05T18:20:12;143.93;;;41.92;;
22320;SDS011;11328;53.928;18.522;2022-12-05T18:22:41;132.38;;;40.67;;
22320;SDS011;11328;53.928;18.522;2022-12-05T18:25:08;133.90;;;41.92;;
22320;SDS011;11328;53.928;18.522;2022-12-05T18:27:37;139.35;;;42.65;;
22320;SDS011;11328;53.928;18.522;2022-12-05T18:30:04;133.02;;;39.88;;
22320;SDS011;11328;53.928;18.522;2022-12-05T18:32:33;120.20;;;39.25;;
22320;SDS011;11328;53.928;18.522;2022-12-05T18:35:00;141.82;;;41.83;;
22320;SDS011;11328;53.928;18.522;2022-12-05T18:40:03;117.45;;;35.83;;
22320;SDS011;11328;53.928;18.522;2022-12-05T18:42:31;134.77;;;40.63;;
22320;SDS011;11328;53.928;18.522;2022-12-05T18:44:59;120.00;;;39.20;;
22320;SDS011;11328;53.928;18.522;2022-12-05T18:47:27;124.05;;;39.05;;
22320;SDS011;11328;53.928;18.522;2022-12-05T18:49:54;117.05;;;39.17;;
22320;SDS011;11328;53.928;18.522;2022-12-05T18:52:21;123.15;;;39.53;;
22320;SDS011;11328;53.928;18.522;2022-12-05T18:54:48;116.32;;;38.00;;